Time;durP1;ratioP1;P1;durP2;ratioP2;P2;SDS_P1;SDS_P2;PMS_P1;PMS_P2;Temp;Humidity;BMP_temperature;BMP_pressure;BME280_temperature;BME280_humidity;BME280_pressure;Samples;Min_cycle;Max_cycle;Signal;HPM_P1;HPM_P2
2023/06/30 00:01:28;;;;;;;13.17;8.87;;;17.80;99.90;;;;;;4993538;28;20474;-83
2023/06/30 00:03:55;;;;;;;11.70;9.18;;;17.70;99.90;;;;;;4986777;28;20232;-83
2023/06/30 00:06:22;;;;;;;14.88;8.95;;;17.70;99.90;;;;;;4993985;28;20240;-84
2023/06/30 00:08:49;;;;;;;10.55;8.65;;;17.70;99.90;;;;;;5009758;28;20221;-83
2023/06/30 00:11:16;;;;;;;12.33;8.13;;;17.70;99.90;;;;;;5004279;28;20223;-84
2023/06/30 00:13:43;;;;;;;11.10;7.47;;;17.60;99.90;;;;;;4989632;28;20224;-83
2023/06/30 00:16:11;;;;;;;10.45;8.05;;;17.60;99.90;;;;;;5000480;28;20229;-83
2023/06/30 00:18:38;;;;;;;7.97;6.38;;;17.60;99.90;;;;;;5007152;28;20905;-82
2023/06/30 00:21:05;;;;;;;11.57;7.00;;;17.60;99.90;;;;;;4994255;28;20773;-81
2023/06/30 00:23:31;;;;;;;7.10;5.68;;;17.50;99.90;;;;;;4995887;28;20643;-82
2023/06/30 00:25:58;;;;;;;7.78;5.60;;;17.60;99.90;;;;;;5008475;28;20336;-83
2023/06/30 00:28:25;;;;;;;6.70;4.88;;;17.50;99.90;;;;;;5013063;28;20279;-81
2023/06/30 00:30:51;;;;;;;8.55;4.28;;;17.60;99.90;;;;;;5006213;28;20218;-81
2023/06/30 00:33:19;;;;;;;5.23;3.40;;;17.50;99.90;;;;;;4993275;28;20223;-82
2023/06/30 00:35:47;;;;;;;6.43;2.97;;;17.50;99.90;;;;;;5009704;28;20233;-82
2023/06/30 00:38:14;;;;;;;6.20;3.30;;;17.40;99.90;;;;;;5010700;28;20229;-82
2023/06/30 00:40:41;;;;;;;4.05;2.63;;;17.40;99.90;;;;;;4991284;28;20315;-81
2023/06/30 00:43:09;;;;;;;5.10;2.90;;;17.40;99.90;;;;;;4992939;28;20218;-81
2023/06/30 00:45:35;;;;;;;4.63;2.47;;;17.40;99.90;;;;;;5008136;28;20225;-81
2023/06/30 00:48:02;;;;;;;5.17;2.40;;;17.30;99.90;;;;;;4995471;28;20296;-82
2023/06/30 00:50:31;;;;;;;3.43;2.10;;;17.30;99.90;;;;;;5011062;28;20252;-81
2023/06/30 00:52:59;;;;;;;2.87;1.93;;;17.30;99.90;;;;;;4995076;28;20230;-82
2023/06/30 00:55:26;;;;;;;4.80;2.13;;;17.30;99.90;;;;;;4989164;28;20229;-82
2023/06/30 00:57:53;;;;;;;5.00;2.20;;;17.20;99.90;;;;;;4993653;28;20226;-82
2023/06/30 01:00:21;;;;;;;4.07;1.77;;;17.20;99.90;;;;;;4991494;28;20312;-82
2023/06/30 01:02:55;;;;;;;3.13;1.70;;;17.20;99.90;;;;;;4989113;28;20726;-83
2023/06/30 01:05:29;;;;;;;7.47;1.80;;;17.20;99.90;;;;;;4994234;28;20244;-83
2023/06/30 01:08:08;;;;;;;3.53;1.77;;;17.10;99.90;;;;;;5010317;28;20224;-81
2023/06/30 01:10:37;;;;;;;7.87;2.23;;;17.10;99.90;;;;;;4993916;28;20304;-81
2023/06/30 01:13:05;;;;;;;4.87;1.80;;;17.10;99.90;;;;;;4995515;28;20235;-83
2023/06/30 01:15:34;;;;;;;2.77;1.77;;;17.00;99.90;;;;;;4993772;28;20216;-82
2023/06/30 01:18:03;;;;;;;4.03;2.00;;;17.00;99.90;;;;;;4991723;28;20221;-82
2023/06/30 01:20:32;;;;;;;6.40;1.87;;;17.00;99.90;;;;;;5011747;28;20225;-81
2023/06/30 01:23:06;;;;;;;2.97;1.60;;;16.90;99.90;;;;;;4986839;28;20221;-83
2023/06/30 01:25:33;;;;;;;5.73;1.67;;;16.90;99.90;;;;;;5004797;28;20267;-83
2023/06/30 01:28:00;;;;;;;3.57;2.00;;;16.90;99.90;;;;;;4989602;28;20312;-83
2023/06/30 01:30:29;;;;;;;5.33;1.90;;;16.90;99.90;;;;;;4988364;28;20233;-83
2023/06/30 01:32:56;;;;;;;5.20;2.10;;;16.90;99.90;;;;;;5008205;28;20225;-83
2023/06/30 01:35:23;;;;;;;3.90;1.83;;;16.90;99.90;;;;;;5009813;28;20661;-82
2023/06/30 01:37:49;;;;;;;2.90;1.63;;;16.90;99.90;;;;;;4990973;28;20233;-82
2023/06/30 01:40:20;;;;;;;5.00;2.10;;;16.90;99.90;;;;;;4990900;28;20225;-82
2023/06/30 01:42:47;;;;;;;3.40;2.20;;;16.90;99.90;;;;;;4992081;28;20348;-83
2023/06/30 01:45:15;;;;;;;5.23;2.13;;;16.90;99.90;;;;;;4986507;28;20229;-82
2023/06/30 01:47:43;;;;;;;4.17;2.20;;;16.90;99.90;;;;;;4989866;28;20259;-82
2023/06/30 01:50:10;;;;;;;4.23;1.97;;;16.90;99.90;;;;;;4989209;28;20276;-82
2023/06/30 01:52:37;;;;;;;4.17;2.13;;;16.90;99.90;;;;;;5003412;28;20313;-83
2023/06/30 01:55:05;;;;;;;5.97;2.43;;;16.90;99.90;;;;;;4989704;28;20217;-82
2023/06/30 01:57:33;;;;;;;4.27;2.27;;;16.90;99.90;;;;;;5008620;28;20261;-81
2023/06/30 02:00:00;;;;;;;3.37;2.30;;;16.90;99.90;;;;;;5002836;28;20279;-82
2023/06/30 02:02:27;;;;;;;4.20;2.00;;;16.90;99.90;;;;;;5011457;28;20228;-81
2023/06/30 02:04:54;;;;;;;4.27;2.03;;;16.80;99.90;;;;;;5014559;28;20865;-82
2023/06/30 02:07:21;;;;;;;6.13;2.50;;;16.90;99.90;;;;;;5001878;28;20236;-81
2023/06/30 02:09:48;;;;;;;4.60;2.67;;;16.90;99.90;;;;;;4996517;28;20225;-82
2023/06/30 02:12:15;;;;;;;7.80;3.00;;;16.90;99.90;;;;;;5016470;28;20908;-81
2023/06/30 02:14:44;;;;;;;6.10;2.70;;;16.80;99.90;;;;;;4991506;28;20721;-81
2023/06/30 02:17:12;;;;;;;4.23;2.60;;;16.90;99.90;;;;;;5007562;28;20731;-81
2023/06/30 02:19:39;;;;;;;8.33;2.70;;;16.80;99.90;;;;;;4994533;28;20225;-81
2023/06/30 02:22:06;;;;;;;5.23;3.00;;;16.90;99.90;;;;;;4996326;28;20220;-81
2023/06/30 02:24:33;;;;;;;4.87;3.23;;;16.90;99.90;;;;;;4993887;28;20318;-81
2023/06/30 02:27:00;;;;;;;4.17;2.90;;;16.90;99.90;;;;;;5016926;28;20267;-81
2023/06/30 02:29:27;;;;;;;4.37;3.50;;;16.90;99.90;;;;;;5012765;28;20268;-81
2023/06/30 02:31:55;;;;;;;6.30;3.67;;;16.90;99.90;;;;;;4987134;28;20244;-81
2023/06/30 02:34:23;;;;;;;6.17;4.23;;;16.90;99.90;;;;;;5001220;28;20236;-80
2023/06/30 02:36:50;;;;;;;6.20;3.73;;;16.90;99.90;;;;;;4989939;28;20229;-81
2023/06/30 02:39:17;;;;;;;6.53;3.90;;;16.90;99.90;;;;;;4993226;28;20217;-82
2023/06/30 02:41:44;;;;;;;7.00;3.70;;;16.80;99.90;;;;;;4984695;28;20634;-81
2023/06/30 02:44:12;;;;;;;7.97;4.30;;;16.90;99.90;;;;;;4990438;28;20299;-82
2023/06/30 02:46:39;;;;;;;8.07;4.00;;;16.80;99.90;;;;;;5002803;28;20229;-82
2023/06/30 02:49:07;;;;;;;10.47;4.03;;;16.90;99.90;;;;;;5003715;28;20612;-81
2023/06/30 02:51:34;;;;;;;6.33;3.80;;;16.80;99.90;;;;;;4989518;28;20217;-81
2023/06/30 02:54:02;;;;;;;4.70;3.90;;;16.80;99.90;;;;;;5008981;28;20469;-81
2023/06/30 02:56:29;;;;;;;10.13;3.60;;;16.90;99.90;;;;;;4992248;28;20308;-82
2023/06/30 02:58:58;;;;;;;12.50;3.40;;;16.80;99.90;;;;;;4988771;28;20300;-82
2023/06/30 03:01:25;;;;;;;6.20;3.20;;;16.90;99.90;;;;;;4992409;28;20800;-82
2023/06/30 03:03:53;;;;;;;6.93;3.27;;;16.80;99.90;;;;;;4990920;28;20586;-82
2023/06/30 03:06:23;;;;;;;8.30;3.50;;;16.80;99.90;;;;;;4993766;28;20340;-81
2023/06/30 03:08:50;;;;;;;6.70;2.90;;;16.90;99.90;;;;;;4986661;28;20335;-81
2023/06/30 03:11:17;;;;;;;8.47;3.43;;;16.90;99.90;;;;;;4988758;28;20232;-81
2023/06/30 03:13:46;;;;;;;5.87;3.20;;;16.90;99.90;;;;;;4989004;28;20225;-82
2023/06/30 03:16:13;;;;;;;5.90;3.50;;;16.90;99.90;;;;;;4994334;28;20227;-82
2023/06/30 03:18:40;;;;;;;5.13;3.17;;;16.90;99.90;;;;;;4992552;28;20218;-82
2023/06/30 03:21:07;;;;;;;5.93;3.63;;;16.80;99.90;;;;;;4987152;28;20232;-82
2023/06/30 03:23:36;;;;;;;7.63;3.47;;;16.90;99.90;;;;;;4993220;28;20994;-82
2023/06/30 03:26:03;;;;;;;5.57;3.00;;;16.80;99.90;;;;;;4987668;28;20226;-81
2023/06/30 03:28:29;;;;;;;6.27;3.47;;;16.80;99.90;;;;;;4992967;28;20262;-81
2023/06/30 03:30:56;;;;;;;7.40;3.73;;;16.80;99.90;;;;;;4987336;28;20264;-82
2023/06/30 03:33:23;;;;;;;9.53;2.93;;;16.80;99.90;;;;;;4990653;28;20225;-81
2023/06/30 03:35:52;;;;;;;5.93;2.73;;;16.80;99.90;;;;;;4988571;28;20240;-81
2023/06/30 03:38:19;;;;;;;6.83;2.70;;;16.70;99.90;;;;;;5006670;28;20268;-82
2023/06/30 03:40:47;;;;;;;8.70;3.10;;;16.70;99.90;;;;;;4987345;28;20263;-82
2023/06/30 03:43:14;;;;;;;5.30;2.83;;;16.70;99.90;;;;;;4992996;28;20233;-81
2023/06/30 03:45:42;;;;;;;6.07;2.73;;;16.70;99.90;;;;;;4995372;28;20217;-83
2023/06/30 03:48:09;;;;;;;4.90;2.60;;;16.70;99.90;;;;;;4987352;28;20232;-82
2023/06/30 03:50:36;;;;;;;5.23;2.30;;;16.70;99.90;;;;;;5005343;28;20765;-83
2023/06/30 03:53:03;;;;;;;4.90;2.10;;;16.70;99.90;;;;;;4993242;28;20601;-81
2023/06/30 03:55:30;;;;;;;5.10;2.67;;;16.60;99.90;;;;;;5003272;28;20252;-81
2023/06/30 03:57:58;;;;;;;4.13;2.50;;;16.60;99.90;;;;;;4987897;28;20969;-82
2023/06/30 04:00:25;;;;;;;5.90;2.43;;;16.60;99.90;;;;;;5003614;28;20772;-81
2023/06/30 04:02:52;;;;;;;5.70;2.43;;;16.70;99.90;;;;;;5005354;28;20225;-81
2023/06/30 04:05:19;;;;;;;6.57;2.20;;;16.60;99.90;;;;;;4988340;28;20962;-81
2023/06/30 04:07:46;;;;;;;4.90;2.40;;;16.70;99.90;;;;;;4987721;28;20244;-81
2023/06/30 04:10:13;;;;;;;7.27;2.73;;;16.70;99.90;;;;;;5003757;28;20214;-81
2023/06/30 04:12:40;;;;;;;4.87;2.57;;;16.70;99.90;;;;;;5011572;28;20235;-81
2023/06/30 04:15:10;;;;;;;3.30;2.40;;;16.70;99.90;;;;;;5009212;28;20278;-82
2023/06/30 04:17:37;;;;;;;5.77;2.50;;;16.70;99.90;;;;;;4990345;28;20214;-82
2023/06/30 04:20:07;;;;;;;7.20;2.10;;;16.80;99.90;;;;;;5008400;28;20217;-81
2023/06/30 04:22:34;;;;;;;4.63;2.07;;;16.80;99.90;;;;;;5001244;28;20230;-81
2023/06/30 04:25:00;;;;;;;4.00;2.43;;;16.70;99.90;;;;;;4988892;28;20260;-80
2023/06/30 04:27:27;;;;;;;2.50;2.00;;;16.80;99.90;;;;;;5004111;28;20325;-81
2023/06/30 04:29:54;;;;;;;4.67;2.53;;;16.80;99.90;;;;;;5010963;28;20294;-81
2023/06/30 04:32:22;;;;;;;4.17;2.50;;;16.80;99.90;;;;;;5005944;28;20232;-81
2023/06/30 04:34:49;;;;;;;6.07;2.70;;;16.80;99.90;;;;;;4988327;28;20251;-82
2023/06/30 04:37:16;;;;;;;3.63;2.20;;;16.80;99.90;;;;;;4987787;28;20218;-82
2023/06/30 04:39:43;;;;;;;3.63;2.07;;;16.90;99.90;;;;;;5005392;28;20229;-83
2023/06/30 04:42:09;;;;;;;3.57;2.00;;;16.90;99.90;;;;;;5007825;28;20221;-81
2023/06/30 04:44:37;;;;;;;6.23;2.43;;;16.90;99.90;;;;;;5005776;28;20659;-83
2023/06/30 04:47:04;;;;;;;5.83;2.60;;;16.90;99.90;;;;;;4988033;28;20225;-81
2023/06/30 04:49:32;;;;;;;2.93;2.00;;;17.00;99.90;;;;;;5006128;28;20304;-82
2023/06/30 04:51:59;;;;;;;6.17;2.30;;;17.00;99.90;;;;;;5000487;28;20229;-83
2023/06/30 04:54:26;;;;;;;6.37;2.00;;;17.00;99.90;;;;;;5000590;28;20225;-81
2023/06/30 04:56:52;;;;;;;3.73;1.93;;;17.00;99.90;;;;;;5003468;28;20225;-81
2023/06/30 04:59:19;;;;;;;5.10;1.90;;;17.00;99.90;;;;;;5001351;28;20261;-81
2023/06/30 05:01:46;;;;;;;3.03;1.77;;;17.00;99.90;;;;;;4992728;28;20359;-79
2023/06/30 05:04:13;;;;;;;3.53;1.77;;;17.00;99.90;;;;;;4988636;28;20312;-81
2023/06/30 05:06:41;;;;;;;4.20;1.70;;;17.00;99.90;;;;;;4987383;28;20237;-81
2023/06/30 05:09:08;;;;;;;3.67;1.60;;;17.10;99.90;;;;;;4996744;28;20262;-81
2023/06/30 05:11:35;;;;;;;5.80;1.87;;;17.10;99.90;;;;;;5000651;28;20239;-80
2023/06/30 05:14:02;;;;;;;3.23;1.87;;;17.10;99.90;;;;;;4998666;28;20717;-80
2023/06/30 05:16:29;;;;;;;3.53;2.27;;;17.10;99.90;;;;;;5001580;28;20283;-80
2023/06/30 05:18:56;;;;;;;4.77;1.60;;;17.10;99.90;;;;;;4989247;28;20251;-80
2023/06/30 05:21:23;;;;;;;4.43;1.63;;;17.10;99.90;;;;;;4983969;28;20669;-81
2023/06/30 05:23:52;;;;;;;5.73;1.87;;;17.10;99.90;;;;;;4987087;28;20304;-80
2023/06/30 05:26:19;;;;;;;2.10;1.70;;;17.00;99.90;;;;;;4987982;28;20259;-81
2023/06/30 05:28:45;;;;;;;3.80;2.17;;;17.00;99.90;;;;;;5008230;28;20221;-81
2023/06/30 05:31:12;;;;;;;5.63;1.73;;;17.00;99.90;;;;;;5007928;28;20925;-80
2023/06/30 05:33:39;;;;;;;5.37;2.03;;;17.00;99.90;;;;;;5010498;28;20298;-81
2023/06/30 05:36:06;;;;;;;4.90;2.50;;;17.00;99.90;;;;;;4989609;28;20229;-81
2023/06/30 05:38:33;;;;;;;3.10;1.80;;;16.90;99.90;;;;;;4991402;28;20225;-81
2023/06/30 05:41:02;;;;;;;3.17;1.80;;;16.90;99.90;;;;;;5008247;28;20240;-81
2023/06/30 05:43:28;;;;;;;4.27;2.27;;;16.80;99.90;;;;;;4995106;28;20227;-82
2023/06/30 05:45:55;;;;;;;7.03;2.70;;;16.80;99.90;;;;;;5010302;28;20237;-80
2023/06/30 05:48:22;;;;;;;6.07;2.07;;;16.70;99.90;;;;;;4992716;28;20754;-80
2023/06/30 05:50:49;;;;;;;5.00;2.30;;;16.80;99.90;;;;;;4996356;28;20853;-80
2023/06/30 05:53:16;;;;;;;3.37;2.00;;;16.70;99.90;;;;;;5009176;28;20233;-80
2023/06/30 05:55:42;;;;;;;4.33;2.00;;;16.60;99.90;;;;;;5008477;28;20315;-80
2023/06/30 05:58:10;;;;;;;4.27;2.23;;;16.50;99.90;;;;;;4991497;28;20248;-80
2023/06/30 06:00:37;;;;;;;4.37;2.53;;;16.50;99.90;;;;;;4985169;28;20213;-80
2023/06/30 06:03:04;;;;;;;11.27;2.77;;;16.40;99.90;;;;;;4999518;23;20312;-78
2023/06/30 06:05:31;;;;;;;5.23;1.63;;;16.40;99.90;;;;;;5001022;28;20354;-79
2023/06/30 06:07:57;;;;;;;5.10;1.87;;;16.30;99.90;;;;;;4999306;28;20216;-78
2023/06/30 06:10:24;;;;;;;4.10;2.07;;;16.20;99.90;;;;;;4999086;28;20233;-79
2023/06/30 06:12:51;;;;;;;3.53;1.80;;;16.10;99.90;;;;;;4999858;28;20234;-80
2023/06/30 06:15:19;;;;;;;3.50;1.73;;;16.10;99.90;;;;;;4993770;28;20776;-79
2023/06/30 06:17:46;;;;;;;4.23;1.83;;;16.00;99.90;;;;;;4996160;28;20255;-78
2023/06/30 06:20:12;;;;;;;3.63;1.80;;;16.00;99.90;;;;;;4999629;28;20222;-83
2023/06/30 06:22:39;;;;;;;4.93;1.63;;;15.90;99.90;;;;;;4999020;28;20243;-80
2023/06/30 06:25:07;;;;;;;5.57;2.30;;;15.90;99.90;;;;;;4999646;28;20317;-78
2023/06/30 06:27:35;;;;;;;2.57;1.70;;;15.90;99.90;;;;;;4998035;28;20221;-76
2023/06/30 06:30:01;;;;;;;5.17;1.90;;;15.90;99.90;;;;;;4997459;28;20765;-77
2023/06/30 06:32:29;;;;;;;4.67;2.20;;;15.90;99.90;;;;;;5007922;28;20248;-79
2023/06/30 06:34:56;;;;;;;6.50;2.00;;;15.90;99.90;;;;;;5012188;28;20229;-80
2023/06/30 06:37:23;;;;;;;5.63;2.40;;;15.90;99.90;;;;;;5019753;28;20254;-79
2023/06/30 06:39:49;;;;;;;2.73;1.70;;;16.00;99.90;;;;;;5008084;28;20234;-79
2023/06/30 06:42:16;;;;;;;5.73;1.90;;;16.00;99.90;;;;;;4990770;28;20229;-79
2023/06/30 06:44:43;;;;;;;4.73;2.27;;;16.10;99.90;;;;;;4993240;28;20236;-78
2023/06/30 06:47:47;;;;;;;7.83;1.93;;;16.20;99.90;;;;;;4993456;28;20236;-77
2023/06/30 06:50:15;;;;;;;5.17;2.20;;;16.20;99.90;;;;;;4997521;28;20257;-79
2023/06/30 06:52:41;;;;;;;4.43;2.00;;;16.30;99.90;;;;;;4991684;28;20240;-80
2023/06/30 06:55:08;;;;;;;4.90;2.23;;;16.30;99.90;;;;;;4999921;28;20328;-79
2023/06/30 06:57:35;;;;;;;3.47;2.03;;;16.30;99.90;;;;;;5005001;28;20225;-79
2023/06/30 07:00:02;;;;;;;4.60;2.13;;;16.30;99.90;;;;;;5004683;28;20751;-79
2023/06/30 07:02:28;;;;;;;6.50;1.90;;;16.30;99.90;;;;;;5002381;28;20240;-79
2023/06/30 07:04:55;;;;;;;5.07;2.03;;;16.40;99.90;;;;;;5002201;28;20933;-79
2023/06/30 07:07:23;;;;;;;3.20;1.50;;;16.40;99.90;;;;;;5003018;28;20213;-79
2023/06/30 07:09:50;;;;;;;5.87;1.83;;;16.30;99.90;;;;;;5002527;28;20261;-79
2023/06/30 07:12:16;;;;;;;3.97;2.03;;;16.30;99.90;;;;;;5004451;28;20228;-79
2023/06/30 07:14:43;;;;;;;3.27;1.80;;;16.20;99.90;;;;;;5004854;28;20224;-79
2023/06/30 07:17:09;;;;;;;3.60;1.70;;;16.20;99.90;;;;;;5004279;28;20221;-79
2023/06/30 07:19:36;;;;;;;4.50;1.90;;;16.10;99.90;;;;;;5005382;28;20721;-79
2023/06/30 07:22:03;;;;;;;2.23;1.70;;;16.10;99.90;;;;;;5013095;28;20221;-79
2023/06/30 07:24:31;;;;;;;6.17;2.47;;;16.10;99.90;;;;;;5004220;28;20224;-79
2023/06/30 07:26:58;;;;;;;3.33;2.03;;;16.10;99.90;;;;;;5000177;28;20259;-79
2023/06/30 07:29:25;;;;;;;4.90;2.20;;;16.00;99.90;;;;;;4993026;28;20590;-78
2023/06/30 07:31:51;;;;;;;6.87;2.50;;;16.00;99.90;;;;;;5000756;28;20232;-79
2023/06/30 07:34:19;;;;;;;6.13;2.77;;;16.10;99.90;;;;;;4999954;28;20320;-79
2023/06/30 07:36:45;;;;;;;5.33;2.27;;;16.10;99.90;;;;;;4998232;28;20228;-79
2023/06/30 07:39:12;;;;;;;7.50;2.70;;;16.10;99.90;;;;;;5001784;28;20331;-79
2023/06/30 07:41:40;;;;;;;4.63;2.90;;;16.10;99.90;;;;;;5000029;28;20221;-79
2023/06/30 07:44:09;;;;;;;8.60;3.50;;;16.20;99.90;;;;;;5004428;28;20309;-79
2023/06/30 07:46:36;;;;;;;7.67;3.27;;;16.20;99.90;;;;;;5000681;28;20311;-79
2023/06/30 07:49:02;;;;;;;6.73;3.53;;;16.30;99.90;;;;;;4995071;28;20220;-79
2023/06/30 07:51:29;;;;;;;5.80;3.00;;;16.40;99.90;;;;;;5002805;28;20225;-81
2023/06/30 07:53:56;;;;;;;10.03;3.33;;;16.40;99.90;;;;;;4994814;28;20284;-80
2023/06/30 07:56:22;;;;;;;6.60;3.60;;;16.50;99.90;;;;;;5001114;28;20224;-79
2023/06/30 07:58:50;;;;;;;7.80;3.67;;;16.60;99.90;;;;;;4996694;28;20255;-79
2023/06/30 08:01:17;;;;;;;6.30;3.60;;;16.70;99.90;;;;;;5001851;28;20222;-80
2023/06/30 08:03:44;;;;;;;6.00;3.20;;;16.90;99.90;;;;;;4999122;28;20939;-79
2023/06/30 08:06:10;;;;;;;5.63;2.90;;;17.10;99.90;;;;;;5012938;28;20729;-80
2023/06/30 08:08:37;;;;;;;5.47;2.47;;;17.20;99.90;;;;;;5017035;28;20224;-79
2023/06/30 08:11:03;;;;;;;6.77;3.30;;;17.40;99.90;;;;;;5024778;28;20308;-81
2023/06/30 08:13:30;;;;;;;5.80;2.90;;;17.60;99.90;;;;;;5021067;28;20251;-83
2023/06/30 08:15:58;;;;;;;5.63;2.67;;;17.90;99.90;;;;;;5022477;28;20231;-81
2023/06/30 08:18:27;;;;;;;7.53;2.70;;;18.20;99.90;;;;;;5001169;28;20237;-82
2023/06/30 08:20:53;;;;;;;15.63;2.53;;;18.60;99.90;;;;;;5005424;28;20236;-81
2023/06/30 08:23:20;;;;;;;22.42;3.45;;;19.10;99.90;;;;;;4999253;28;20229;-82
2023/06/30 08:25:47;;;;;;;4.82;1.98;;;19.60;99.90;;;;;;4998815;28;20225;-83
2023/06/30 08:28:13;;;;;;;3.95;1.55;;;20.30;99.90;;;;;;4996941;28;20240;-81
2023/06/30 08:30:40;;;;;;;3.25;1.52;;;20.80;99.90;;;;;;5009194;28;20225;-80
2023/06/30 08:33:08;;;;;;;4.75;1.40;;;21.40;99.90;;;;;;5019341;28;20617;-80
2023/06/30 08:35:35;;;;;;;2.45;1.38;;;21.90;99.90;;;;;;5024455;28;20223;-80
2023/06/30 08:38:01;;;;;;;3.35;1.40;;;22.40;99.90;;;;;;5018436;28;20212;-82
2023/06/30 08:40:31;;;;;;;2.70;1.38;;;22.70;99.90;;;;;;5008040;28;20834;-81
2023/06/30 08:42:59;;;;;;;2.95;1.50;;;23.00;99.90;;;;;;5005126;28;20227;-81
2023/06/30 08:45:27;;;;;;;4.75;1.90;;;23.10;99.90;;;;;;5005368;28;20230;-82
2023/06/30 08:47:56;;;;;;;4.80;1.63;;;23.30;99.90;;;;;;5005783;28;20217;-81
2023/06/30 08:50:25;;;;;;;3.45;1.17;;;23.60;99.90;;;;;;5014523;28;20221;-81
2023/06/30 08:52:52;;;;;;;3.50;1.20;;;23.90;99.90;;;;;;4997930;28;20247;-81
2023/06/30 08:55:18;;;;;;;4.07;1.23;;;24.30;99.90;;;;;;4996209;28;20230;-78
2023/06/30 08:57:46;;;;;;;3.25;1.13;;;24.50;99.90;;;;;;4995882;28;20222;-80
2023/06/30 09:00:14;;;;;;;2.95;1.30;;;24.60;99.90;;;;;;5000218;28;20221;-80
2023/06/30 09:02:42;;;;;;;3.08;1.00;;;24.70;99.90;;;;;;4999036;28;20233;-79
2023/06/30 09:05:09;;;;;;;2.38;1.48;;;24.70;99.90;;;;;;4995310;28;20687;-79
2023/06/30 09:07:42;;;;;;;1.55;0.98;;;24.60;99.90;;;;;;5003514;28;20221;-79
2023/06/30 09:10:10;;;;;;;3.88;1.00;;;24.40;99.90;;;;;;4997802;28;20225;-78
2023/06/30 09:12:38;;;;;;;6.70;1.13;;;24.20;99.90;;;;;;5000483;28;20320;-79
2023/06/30 09:15:09;;;;;;;3.17;1.08;;;24.20;99.90;;;;;;5001481;28;20225;-79
2023/06/30 09:17:37;;;;;;;1.35;0.95;;;24.20;99.90;;;;;;4998216;28;20233;-79
2023/06/30 09:20:04;;;;;;;1.58;0.90;;;24.30;99.90;;;;;;4995616;28;20236;-79
2023/06/30 09:22:30;;;;;;;2.25;1.10;;;24.60;99.90;;;;;;5019033;28;20224;-79
2023/06/30 09:24:59;;;;;;;3.13;0.90;;;24.90;99.80;;;;;;5018945;28;20225;-79
2023/06/30 09:27:27;;;;;;;5.00;1.10;;;25.40;98.60;;;;;;5009911;28;20240;-79
2023/06/30 09:29:54;;;;;;;3.20;1.10;;;25.90;98.50;;;;;;5016074;28;20244;-78
2023/06/30 09:32:28;;;;;;;4.25;1.20;;;26.40;97.40;;;;;;4999175;28;20233;-80
2023/06/30 09:34:55;;;;;;;1.83;0.90;;;26.90;96.50;;;;;;4998458;28;20243;-79
2023/06/30 09:37:22;;;;;;;2.58;0.88;;;27.40;96.50;;;;;;4998708;28;20225;-80
2023/06/30 09:39:50;;;;;;;1.77;0.93;;;27.70;95.90;;;;;;5001408;28;20221;-80
2023/06/30 09:42:21;;;;;;;2.33;0.93;;;28.10;94.60;;;;;;4996094;28;20268;-80
2023/06/30 09:44:48;;;;;;;3.08;1.05;;;28.40;93.70;;;;;;4993846;28;20283;-80
2023/06/30 09:47:18;;;;;;;3.30;0.93;;;28.60;93.60;;;;;;5001928;28;20251;-79
2023/06/30 09:49:45;;;;;;;1.95;1.00;;;28.80;91.10;;;;;;4998041;28;20221;-80
2023/06/30 09:52:23;;;;;;;3.53;1.00;;;28.90;91.00;;;;;;4998285;28;20811;-79
2023/06/30 09:54:50;;;;;;;2.92;0.95;;;28.80;87.40;;;;;;5000195;28;20228;-79
2023/06/30 09:57:18;;;;;;;2.45;0.90;;;28.80;88.30;;;;;;5004294;28;20748;-79
2023/06/30 09:59:46;;;;;;;1.50;0.90;;;28.70;87.40;;;;;;4996457;28;20221;-78
2023/06/30 10:02:15;;;;;;;3.60;0.85;;;28.90;86.40;;;;;;4995230;28;20612;-79
2023/06/30 10:04:43;;;;;;;2.75;0.80;;;29.00;86.00;;;;;;4999273;28;20312;-79
2023/06/30 10:07:12;;;;;;;2.17;0.90;;;29.10;87.80;;;;;;4998059;28;20225;-79
2023/06/30 10:09:41;;;;;;;2.33;0.90;;;29.30;85.00;;;;;;5001947;28;20722;-79
2023/06/30 10:12:10;;;;;;;1.55;0.70;;;29.40;81.00;;;;;;4996967;28;20730;-79
2023/06/30 10:14:39;;;;;;;2.00;0.90;;;29.50;79.00;;;;;;4998977;28;20229;-79
2023/06/30 10:17:08;;;;;;;1.15;0.70;;;29.50;80.80;;;;;;4997976;28;20217;-80
2023/06/30 10:19:36;;;;;;;2.08;0.88;;;29.50;79.90;;;;;;4998222;28;20228;-79
2023/06/30 10:22:03;;;;;;;2.55;0.63;;;29.50;76.40;;;;;;5013398;28;20228;-80
2023/06/30 10:24:37;;;;;;;1.60;0.90;;;29.40;76.00;;;;;;5017479;28;21162;-79
2023/06/30 10:27:06;;;;;;;1.65;0.70;;;29.30;75.80;;;;;;5017432;28;20340;-79
2023/06/30 10:29:34;;;;;;;2.42;0.90;;;29.10;75.60;;;;;;5017655;28;20284;-78
2023/06/30 10:32:03;;;;;;;2.38;1.00;;;29.00;76.40;;;;;;5020554;28;20619;-79
2023/06/30 10:34:31;;;;;;;2.47;1.00;;;28.80;75.70;;;;;;5016067;28;20230;-79
2023/06/30 10:36:59;;;;;;;1.48;0.90;;;28.60;75.00;;;;;;4995912;28;20309;-78
2023/06/30 10:39:26;;;;;;;3.60;0.77;;;28.40;74.50;;;;;;5002221;28;20228;-79
2023/06/30 10:41:56;;;;;;;1.90;0.90;;;28.10;75.30;;;;;;5003260;28;20221;-79
2023/06/30 10:44:36;;;;;;;1.10;0.77;;;27.80;76.00;;;;;;5006468;28;20233;-78
2023/06/30 10:47:05;;;;;;;3.20;1.00;;;27.50;76.00;;;;;;4999624;28;20228;-81
2023/06/30 10:49:34;;;;;;;2.03;0.90;;;27.20;77.00;;;;;;5015301;28;20307;-79
2023/06/30 10:52:02;;;;;;;3.22;0.93;;;26.90;76.00;;;;;;5019315;28;20216;-78
2023/06/30 10:54:31;;;;;;;2.00;0.98;;;26.60;77.90;;;;;;5022239;28;20233;-79
2023/06/30 10:57:06;;;;;;;2.53;0.98;;;26.30;78.20;;;;;;5020667;28;20681;-78
2023/06/30 10:59:38;;;;;;;1.50;1.10;;;26.10;78.70;;;;;;4998973;28;20252;-79
2023/06/30 11:02:23;;;;;;;3.42;1.15;;;26.00;78.40;;;;;;4999991;28;20212;-78
2023/06/30 11:04:52;;;;;;;1.85;1.08;;;26.00;78.60;;;;;;5018334;28;20220;-78
2023/06/30 11:07:23;;;;;;;2.97;1.02;;;26.10;79.80;;;;;;5019972;28;20236;-79
2023/06/30 11:09:58;;;;;;;1.63;0.93;;;26.20;79.10;;;;;;5020347;28;20697;-78
2023/06/30 11:12:27;;;;;;;2.22;0.95;;;26.20;78.60;;;;;;5013846;28;20235;-77
2023/06/30 11:14:55;;;;;;;2.40;0.88;;;26.10;77.70;;;;;;5011799;28;20225;-78
2023/06/30 11:17:24;;;;;;;2.92;0.82;;;26.10;77.80;;;;;;5000609;28;20276;-78
2023/06/30 11:20:10;;;;;;;2.53;1.10;;;26.00;74.70;;;;;;4998129;28;20224;-79
2023/06/30 11:22:37;;;;;;;2.15;0.73;;;26.00;76.40;;;;;;5021442;28;20239;-78
2023/06/30 11:25:05;;;;;;;1.90;0.80;;;26.10;75.90;;;;;;5018987;28;20295;-78
2023/06/30 11:27:33;;;;;;;1.48;0.60;;;26.40;74.90;;;;;;5018569;28;20224;-79
2023/06/30 11:30:01;;;;;;;1.15;0.82;;;26.60;76.70;;;;;;5021185;28;20250;-79
2023/06/30 11:32:30;;;;;;;1.30;0.70;;;27.00;73.90;;;;;;5022393;28;20231;-79
2023/06/30 11:34:59;;;;;;;3.22;1.08;;;27.20;72.80;;;;;;5015324;28;20219;-79
2023/06/30 11:37:27;;;;;;;3.55;1.10;;;27.20;71.70;;;;;;5017425;28;20225;-78
2023/06/30 11:39:55;;;;;;;1.52;0.95;;;27.30;72.30;;;;;;5014264;28;20600;-80
2023/06/30 11:42:22;;;;;;;1.90;1.00;;;27.30;72.60;;;;;;5000363;28;20233;-78
2023/06/30 11:44:49;;;;;;;1.48;1.13;;;27.40;71.70;;;;;;4999223;28;20221;-79
2023/06/30 11:47:16;;;;;;;2.50;1.20;;;27.40;72.10;;;;;;5004730;28;20221;-79
2023/06/30 11:49:46;;;;;;;1.42;0.95;;;27.40;72.30;;;;;;4999247;28;20222;-78
2023/06/30 11:52:14;;;;;;;2.53;1.00;;;27.40;72.80;;;;;;5001393;28;20757;-79
2023/06/30 11:54:41;;;;;;;2.10;0.95;;;27.40;72.70;;;;;;5021649;28;20228;-79
2023/06/30 11:57:09;;;;;;;2.47;1.02;;;27.40;71.50;;;;;;5017387;28;20223;-78
2023/06/30 11:59:37;;;;;;;3.20;1.10;;;27.50;71.70;;;;;;5024322;28;20220;-78
2023/06/30 12:02:04;;;;;;;1.60;0.85;;;27.70;71.60;;;;;;5023340;28;20221;-78
2023/06/30 12:04:35;;;;;;;3.78;1.25;;;27.90;71.20;;;;;;5049377;23;20231;-80
2023/06/30 12:07:05;;;;;;;1.42;0.70;;;28.00;69.60;;;;;;5026342;28;20307;-80
2023/06/30 12:09:32;;;;;;;1.73;0.88;;;28.30;70.60;;;;;;5026010;28;20247;-80
2023/06/30 12:12:00;;;;;;;2.72;0.90;;;28.60;68.30;;;;;;5028047;28;20225;-80
2023/06/30 12:14:27;;;;;;;1.60;0.82;;;28.80;68.30;;;;;;5011516;28;20233;-81
2023/06/30 12:16:54;;;;;;;1.63;0.90;;;28.90;67.40;;;;;;5008645;28;20300;-81
2023/06/30 12:19:25;;;;;;;3.10;1.00;;;29.20;66.40;;;;;;5006250;28;20225;-81
2023/06/30 12:21:53;;;;;;;2.58;1.05;;;29.40;65.90;;;;;;5007686;28;20226;-79
2023/06/30 12:24:21;;;;;;;3.20;0.90;;;29.50;64.90;;;;;;5007353;28;20248;-79
2023/06/30 12:26:49;;;;;;;2.90;0.90;;;29.80;63.60;;;;;;5007894;28;20758;-80
2023/06/30 12:29:17;;;;;;;2.63;0.82;;;29.90;63.50;;;;;;5005265;28;20226;-79
2023/06/30 12:31:45;;;;;;;1.83;0.93;;;30.10;62.80;;;;;;5005574;28;20240;-79
2023/06/30 12:34:12;;;;;;;1.73;0.98;;;30.30;61.60;;;;;;5006445;28;20289;-80
2023/06/30 12:36:39;;;;;;;1.98;0.90;;;30.40;61.50;;;;;;5005647;28;20321;-79
2023/06/30 12:39:06;;;;;;;2.30;0.80;;;30.60;60.00;;;;;;5003231;28;20616;-79
2023/06/30 12:41:34;;;;;;;2.33;1.08;;;30.60;60.00;;;;;;5003431;28;20316;-79
2023/06/30 12:44:03;;;;;;;2.95;0.90;;;30.60;58.00;;;;;;5001423;28;20229;-79
2023/06/30 12:46:29;;;;;;;1.90;0.90;;;30.60;58.50;;;;;;5005073;28;20234;-79
2023/06/30 12:48:56;;;;;;;1.60;0.93;;;30.40;57.40;;;;;;5005408;28;20229;-80